Disney Magic — C6PT7 — position and weather

sailwx.info

Track history (hours):
 
Tides and Currents Weather Stations Pressure Air Temp Water Temp Dewpoint Dewpoint Depression Visibility Wind Speed Wind Dir Waves Ship Positions

Disney Magic

Last reported at 2018-Oct-20 11:00 UTC. Time now 2018-Oct-20 12:28 UTC.
Position N 37°36' W 070°24'.

Type: Passenger vessel. MMSI: 308516000.

Wind from 210 at 35 knots

Barometer 1013.2 mb
Air temperature 23.0 ° C
Visibility: greater than 10.8 NM
Dewpoint 16.5 ° C
Water temperature 27.0 ° C

Date/timePositionNaut miles runAvg speedWind from/ knotsBaromVisibWave heightAir tempDewpointWater temp
2018-Oct-20 11:00N 37°36' W 070°24'21322.0 210 / 351013.210.8 23.016.527.0
2018-Oct-20 01:20N 40°11' W 073°31'1020.1
2018-Oct-20 00:50N 40°18' W 073°40'719.9
2018-Oct-20 00:29N 40°24' W 073°46'614.4
2018-Oct-20 00:03N 40°28' W 073°52'112.6
2018-Oct-20 00:00N 40°28' W 073°52'816.8
2018-Oct-19 23:31N 40°33' W 074°02'510.7
2018-Oct-19 23:04N 40°37' W 074°03'0 0.6
2018-Oct-19 23:00N 40°37' W 074°03'1 1.5
2018-Oct-19 22:30N 40°37' W 074°03'4 9.5
2018-Oct-19 22:03N 40°41' W 074°02'111.1
2018-Oct-19 22:00N 40°41' W 074°02'4 7.0
2018-Oct-19 21:29N 40°45' W 074°01'1 1.1
2018-Oct-19 20:25N 40°46' W 073°60'0 0.0
2018-Oct-19 19:46N 40°46' W 073°60'0 0.0
2018-Oct-19 18:43N 40°46' W 073°60'0 0.0
2018-Oct-19 18:04N 40°46' W 073°60'0 0.0
2018-Oct-19 17:28N 40°46' W 073°60'0 0.0
2018-Oct-19 17:01N 40°46' W 073°60'0 0.0
2018-Oct-19 16:58N 40°46' W 073°60'0 0.0
2018-Oct-19 16:28N 40°46' W 073°60'0 0.0
2018-Oct-19 16:01N 40°46' W 073°60'0 0.0
2018-Oct-19 15:58N 40°46' W 073°60'0 0.0
2018-Oct-19 15:25N 40°46' W 073°60'0 0.0
2018-Oct-19 15:01N 40°46' W 073°60'0 0.0
2018-Oct-19 14:58N 40°46' W 073°60'0 0.0
2018-Oct-19 14:28N 40°46' W 073°60'0 0.0
2018-Oct-19 13:25N 40°46' W 073°60'0 0.0
2018-Oct-19 13:01N 40°46' W 073°60'0 0.0
2018-Oct-19 12:55N 40°46' W 073°60'0 0.0
2018-Oct-19 12:28N 40°46' W 073°60'0 0.0
2018-Oct-19 12:01N 40°46' W 073°60'0 0.0
2018-Oct-19 11:58N 40°46' W 073°60'0 0.0
2018-Oct-19 11:28N 40°46' W 073°60'0 0.0
2018-Oct-19 10:55N 40°46' W 073°60'0 0.0
2018-Oct-19 10:25N 40°46' W 073°60'0 0.1
2018-Oct-19 10:01N 40°46' W 073°60'0 0.8
2018-Oct-19 09:59N 40°46' W 074°00'1 3.2
2018-Oct-19 09:30N 40°45' W 074°01'4 8.9
2018-Oct-19 09:03N 40°41' W 074°02'112.4
2018-Oct-19 09:00N 40°40' W 074°03'612.8
2018-Oct-19 08:30N 40°34' W 074°02'613.0
2018-Oct-19 08:03N 40°30' W 073°56'114.0
2018-Oct-19 08:00N 40°30' W 073°55'713.1
2018-Oct-19 07:30N 40°27' W 073°48'511.6
2018-Oct-19 07:02N 40°23' W 073°42'216.4
2018-Oct-19 06:55N 40°22' W 073°40'3416.6
2018-Oct-19 04:52N 39°59' W 073°07'44319.4
2018-Oct-18 06:00N 34°00' W 067°42'   270 / 171017.310.8 25.022.026.0
2018-Oct-15 07:00N 33°12' W 065°12'18917.2 030 / 121022.510.8 22.015.326.0
2018-Oct-14 20:00N 35°30' W 067°48'24919.2 050 / 131022.210.8 22.015.326.0
2018-Oct-14 07:00N 38°30' W 071°24'15320.5 350 / 151020.510.8 15.0 6.822.0
2018-Oct-13 23:33N 40°20' W 073°41'117.6
2018-Oct-13 23:30N 40°20' W 073°42'817.4
2018-Oct-13 23:04N 40°26' W 073°49'113.7
2018-Oct-13 23:00N 40°27' W 073°49'815.8
2018-Oct-13 22:30N 40°31' W 073°58'716.2
2018-Oct-13 22:03N 40°37' W 074°03'116.6
2018-Oct-13 22:00N 40°38' W 074°03'713.3
2018-Oct-13 21:30N 40°44' W 074°01'2 3.9
2018-Oct-13 21:01N 40°46' W 073°60'0 0.0
2018-Oct-13 20:58N 40°46' W 073°60'0 0.0
2018-Oct-13 20:28N 40°46' W 073°60'0 0.0
2018-Oct-13 20:01N 40°46' W 073°60'0 0.0
2018-Oct-13 19:58N 40°46' W 073°60'0 0.0
2018-Oct-13 19:28N 40°46' W 073°60'0 0.0
2018-Oct-13 18:49N 40°46' W 073°60'0 0.0
2018-Oct-13 18:25N 40°46' W 073°60'0 0.0
2018-Oct-13 18:01N 40°46' W 073°60'0 0.0
2018-Oct-13 17:49N 40°46' W 073°60'0 0.0
2018-Oct-13 17:28N 40°46' W 073°60'0 0.0
2018-Oct-13 17:01N 40°46' W 073°60'0 0.0
2018-Oct-13 16:58N 40°46' W 073°60'0 0.0
2018-Oct-13 16:28N 40°46' W 073°60'0 0.0
2018-Oct-13 16:01N 40°46' W 073°60'0 0.0
2018-Oct-13 15:58N 40°46' W 073°60'0 0.0
2018-Oct-13 15:28N 40°46' W 073°60'0 0.0
2018-Oct-13 14:58N 40°46' W 073°60'0 0.0
2018-Oct-13 14:28N 40°46' W 073°60'0 0.0
2018-Oct-13 13:55N 40°46' W 073°60'0 0.0
2018-Oct-13 13:28N 40°46' W 073°60'0 0.0
2018-Oct-13 13:01N 40°46' W 073°60'0 0.0
2018-Oct-13 12:58N 40°46' W 073°60'0 0.0
2018-Oct-13 12:28N 40°46' W 073°60'0 0.0
2018-Oct-13 12:01N 40°46' W 073°60'0 0.0
2018-Oct-13 11:58N 40°46' W 073°60'0 0.0
2018-Oct-13 11:28N 40°46' W 073°60'0 0.0
2018-Oct-13 11:01N 40°46' W 073°60'0 0.0
2018-Oct-13 10:58N 40°46' W 073°60'0 0.0
2018-Oct-13 10:28N 40°46' W 073°60'0 0.3
2018-Oct-13 10:03N 40°46' W 074°00'0 0.8
2018-Oct-13 10:00N 40°46' W 074°00'2 3.3
2018-Oct-13 09:30N 40°45' W 074°01'511.5
2018-Oct-13 09:03N 40°40' W 074°03'113.1
2018-Oct-13 09:00N 40°39' W 074°03'815.0
2018-Oct-13 08:30N 40°32' W 074°01'715.7
2018-Oct-13 08:03N 40°28' W 073°53'115.9
2018-Oct-13 08:00N 40°28' W 073°52'610.9
2018-Oct-13 07:29N 40°27' W 073°44'5 9.8
2018-Oct-13 06:59N 40°28' W 073°38'7 7.0
2018-Oct-13 06:00N 40°24' W 073°30'297 6.2 330 / 171009.210.8 13.0 6.820.0
2018-Oct-11 06:00N 42°48' W 067°42'0 0.0 250 / 171015.2 5.4 20.018.416.0
2018-Oct-10 21:00N 42°48' W 067°42'   250 / 171015.2 5.4 20.018.416.0
Track history (hours):
 
Tides and Currents Weather Stations Pressure Air Temp Water Temp Dewpoint Dewpoint Depression Visibility Wind Speed Wind Dir Waves Ship Positions

Disney Magic

Last reported at 2018-Oct-20 11:00 UTC. Time now 2018-Oct-20 12:28 UTC.
Position N 37°36' W 070°24'.

Type: Passenger vessel. MMSI: 308516000.

Wind from 210 at 35 knots

Barometer 1013.2 mb
Air temperature 23.0 ° C
Visibility: greater than 10.8 NM
Dewpoint 16.5 ° C
Water temperature 27.0 ° C

Date/timePositionNaut miles runAvg speedWind from/ knotsBaromVisibWave heightAir tempDewpointWater temp
2018-Oct-20 11:00N 37°36' W 070°24'21322.0 210 / 351013.210.8 23.016.527.0
2018-Oct-20 01:20N 40°11' W 073°31'1020.1
2018-Oct-20 00:50N 40°18' W 073°40'719.9
2018-Oct-20 00:29N 40°24' W 073°46'614.4
2018-Oct-20 00:03N 40°28' W 073°52'112.6
2018-Oct-20 00:00N 40°28' W 073°52'816.8
2018-Oct-19 23:31N 40°33' W 074°02'510.7
2018-Oct-19 23:04N 40°37' W 074°03'0 0.6
2018-Oct-19 23:00N 40°37' W 074°03'1 1.5
2018-Oct-19 22:30N 40°37' W 074°03'4 9.5
2018-Oct-19 22:03N 40°41' W 074°02'111.1
2018-Oct-19 22:00N 40°41' W 074°02'4 7.0
2018-Oct-19 21:29N 40°45' W 074°01'1 1.1
2018-Oct-19 20:25N 40°46' W 073°60'0 0.0
2018-Oct-19 19:46N 40°46' W 073°60'0 0.0
2018-Oct-19 18:43N 40°46' W 073°60'0 0.0
2018-Oct-19 18:04N 40°46' W 073°60'0 0.0
2018-Oct-19 17:28N 40°46' W 073°60'0 0.0
2018-Oct-19 17:01N 40°46' W 073°60'0 0.0
2018-Oct-19 16:58N 40°46' W 073°60'0 0.0
2018-Oct-19 16:28N 40°46' W 073°60'0 0.0
2018-Oct-19 16:01N 40°46' W 073°60'0 0.0
2018-Oct-19 15:58N 40°46' W 073°60'0 0.0
2018-Oct-19 15:25N 40°46' W 073°60'0 0.0
2018-Oct-19 15:01N 40°46' W 073°60'0 0.0
2018-Oct-19 14:58N 40°46' W 073°60'0 0.0
2018-Oct-19 14:28N 40°46' W 073°60'0 0.0
2018-Oct-19 13:25N 40°46' W 073°60'0 0.0
2018-Oct-19 13:01N 40°46' W 073°60'0 0.0
2018-Oct-19 12:55N 40°46' W 073°60'0 0.0
2018-Oct-19 12:28N 40°46' W 073°60'0 0.0
2018-Oct-19 12:01N 40°46' W 073°60'0 0.0
2018-Oct-19 11:58N 40°46' W 073°60'0 0.0
2018-Oct-19 11:28N 40°46' W 073°60'0 0.0
2018-Oct-19 10:55N 40°46' W 073°60'0 0.0
2018-Oct-19 10:25N 40°46' W 073°60'0 0.1
2018-Oct-19 10:01N 40°46' W 073°60'0 0.8
2018-Oct-19 09:59N 40°46' W 074°00'1 3.2
2018-Oct-19 09:30N 40°45' W 074°01'4 8.9
2018-Oct-19 09:03N 40°41' W 074°02'112.4
2018-Oct-19 09:00N 40°40' W 074°03'612.8
2018-Oct-19 08:30N 40°34' W 074°02'613.0
2018-Oct-19 08:03N 40°30' W 073°56'114.0
2018-Oct-19 08:00N 40°30' W 073°55'713.1
2018-Oct-19 07:30N 40°27' W 073°48'511.6
2018-Oct-19 07:02N 40°23' W 073°42'216.4
2018-Oct-19 06:55N 40°22' W 073°40'3416.6
2018-Oct-19 04:52N 39°59' W 073°07'44319.4
2018-Oct-18 06:00N 34°00' W 067°42'   270 / 171017.310.8 25.022.026.0
2018-Oct-15 07:00N 33°12' W 065°12'18917.2 030 / 121022.510.8 22.015.326.0
2018-Oct-14 20:00N 35°30' W 067°48'24919.2 050 / 131022.210.8 22.015.326.0
2018-Oct-14 07:00N 38°30' W 071°24'15320.5 350 / 151020.510.8 15.0 6.822.0
2018-Oct-13 23:33N 40°20' W 073°41'117.6
2018-Oct-13 23:30N 40°20' W 073°42'817.4
2018-Oct-13 23:04N 40°26' W 073°49'113.7
2018-Oct-13 23:00N 40°27' W 073°49'815.8
2018-Oct-13 22:30N 40°31' W 073°58'716.2
2018-Oct-13 22:03N 40°37' W 074°03'116.6
2018-Oct-13 22:00N 40°38' W 074°03'713.3
2018-Oct-13 21:30N 40°44' W 074°01'2 3.9
2018-Oct-13 21:01N 40°46' W 073°60'0 0.0
2018-Oct-13 20:58N 40°46' W 073°60'0 0.0
2018-Oct-13 20:28N 40°46' W 073°60'0 0.0
2018-Oct-13 20:01N 40°46' W 073°60'0 0.0
2018-Oct-13 19:58N 40°46' W 073°60'0 0.0
2018-Oct-13 19:28N 40°46' W 073°60'0 0.0
2018-Oct-13 18:49N 40°46' W 073°60'0 0.0
2018-Oct-13 18:25N 40°46' W 073°60'0 0.0
2018-Oct-13 18:01N 40°46' W 073°60'0 0.0
2018-Oct-13 17:49N 40°46' W 073°60'0 0.0
2018-Oct-13 17:28N 40°46' W 073°60'0 0.0
2018-Oct-13 17:01N 40°46' W 073°60'0 0.0
2018-Oct-13 16:58N 40°46' W 073°60'0 0.0
2018-Oct-13 16:28N 40°46' W 073°60'0 0.0
2018-Oct-13 16:01N 40°46' W 073°60'0 0.0
2018-Oct-13 15:58N 40°46' W 073°60'0 0.0
2018-Oct-13 15:28N 40°46' W 073°60'0 0.0
2018-Oct-13 14:58N 40°46' W 073°60'0 0.0
2018-Oct-13 14:28N 40°46' W 073°60'0 0.0
2018-Oct-13 13:55N 40°46' W 073°60'0 0.0
2018-Oct-13 13:28N 40°46' W 073°60'0 0.0
2018-Oct-13 13:01N 40°46' W 073°60'0 0.0
2018-Oct-13 12:58N 40°46' W 073°60'0 0.0
2018-Oct-13 12:28N 40°46' W 073°60'0 0.0
2018-Oct-13 12:01N 40°46' W 073°60'0 0.0
2018-Oct-13 11:58N 40°46' W 073°60'0 0.0
2018-Oct-13 11:28N 40°46' W 073°60'0 0.0
2018-Oct-13 11:01N 40°46' W 073°60'0 0.0
2018-Oct-13 10:58N 40°46' W 073°60'0 0.0
2018-Oct-13 10:28N 40°46' W 073°60'0 0.3
2018-Oct-13 10:03N 40°46' W 074°00'0 0.8
2018-Oct-13 10:00N 40°46' W 074°00'2 3.3
2018-Oct-13 09:30N 40°45' W 074°01'511.5
2018-Oct-13 09:03N 40°40' W 074°03'113.1
2018-Oct-13 09:00N 40°39' W 074°03'815.0
2018-Oct-13 08:30N 40°32' W 074°01'715.7
2018-Oct-13 08:03N 40°28' W 073°53'115.9
2018-Oct-13 08:00N 40°28' W 073°52'610.9
2018-Oct-13 07:29N 40°27' W 073°44'5 9.8
2018-Oct-13 06:59N 40°28' W 073°38'7 7.0
2018-Oct-13 06:00N 40°24' W 073°30'297 6.2 330 / 171009.210.8 13.0 6.820.0
2018-Oct-11 06:00N 42°48' W 067°42'0 0.0 250 / 171015.2 5.4 20.018.416.0
2018-Oct-10 21:00N 42°48' W 067°42'   250 / 171015.2 5.4 20.018.416.0

Dump ship's entire track history